Airfield :







YOU CAN JOIN US ON...

 
LOGIN :

Register | Disclaimer

   EN    FR    IT 

 









Legend :    VFR   Marginal VFR   IFR   Intensive IFR   Very Intensive IFR
Visi :
Ceiling :
>= 8 km
>= 3000ft
5 to 8 km
1000 to 3000 ft
1500m to 5 km
500 to 1000 ft
800 to 1500m
200 to 500 ft
< 800m
< 200 ft
Symbols :   Thunderstorms  Fog  Heavy snow  Heavy precipitations  Wind > 20 kt






- Airport Elevation : 732 ft


KMVL - Morrisville Stowe State

CURRENT METAR :
  • 280601Z AUTO 34005KT 1 3/4SM -SN BR BKN013 OVC023 M01/M02 A2966 RMK AO2 P0000 T10061022

EXPIRED METARs :
  • 280554Z AUTO 01006KT 2SM -SN BR BKN013 OVC020 M01/M02 A2965 RMK AO2 SNB08 SLP051 P0000 60000 T10061022 10006 21006 51009
  • 280454Z AUTO 33004KT 10SM OVC020 M01/M03 A2965 RMK AO2 SNE08 SLP050 P0000 T10061028 400171006
  • 280354Z AUTO 34007KT 7SM -SN SCT016 OVC024 M01/M02 A2964 RMK AO2 SNB03E20B54 SLP046 P0000 T10061022

TAF N/A



MET'MAP, your aeronautical weather chart ! - Copyright ORBIFLY December 2007 - Disclaimer

ORBIFLY MET'MAP TEAM :

Programming & Development : Alexandra Zaïnal
Concept & original design : Baudouin d'Aumeries
Assistance for programming : Marc-Olivier Méhu
Technical & hardware support : Manuel Goepfert

Contact : metmap@orbifly.com




SOURCES & CREDITS :

   NOAA